TimeCST,TemperatureF,Dew PointF,Humidity,Sea Level PressureIn,VisibilityMPH,Wind Direction,Wind SpeedMPH,Gust SpeedMPH,PrecipitationIn,Events,Conditions,WindDirDegrees,DateUTC
12:53 AM,27.0,21.9,81,30.04,10.0,NNW,8.1,-,N/A,,Clear,330,2014-01-01 06:53:00
1:53 AM,27.0,21.0,78,30.03,10.0,North,5.8,-,N/A,,Clear,360,2014-01-01 07:53:00
2:53 AM,26.1,21.0,81,30.02,10.0,East,5.8,-,N/A,,Clear,80,2014-01-01 08:53:00
3:53 AM,23.0,19.0,85,30.02,10.0,North,5.8,-,N/A,,Clear,10,2014-01-01 09:53:00
4:53 AM,21.0,17.1,85,30.04,8.0,North,11.5,-,N/A,,Clear,350,2014-01-01 10:53:00
5:53 AM,21.0,16.0,81,30.04,9.0,North,11.5,-,N/A,,Clear,10,2014-01-01 11:53:00
6:53 AM,19.9,15.1,81,30.06,9.0,NNE,11.5,-,N/A,,Clear,20,2014-01-01 12:53:00
7:22 AM,19.0,14.0,81,30.04,9.0,North,17.3,-,N/A,,Mostly Cloudy,10,2014-01-01 13:22:00
7:53 AM,19.0,12.9,77,30.10,7.0,NNE,15.0,-,N/A,,Overcast,20,2014-01-01 13:53:00
8:53 AM,18.0,12.0,78,30.14,7.0,NNE,17.3,-,N/A,,Overcast,20,2014-01-01 14:53:00
9:53 AM,18.0,12.0,78,30.16,8.0,NNE,16.1,-,N/A,,Overcast,30,2014-01-01 15:53:00
10:53 AM,19.0,12.0,74,30.18,7.0,NNE,17.3,-,N/A,,Mostly Cloudy,30,2014-01-01 16:53:00
11:41 AM,19.0,12.0,74,30.13,7.0,North,17.3,-,N/A,,Overcast,10,2014-01-01 17:41:00
11:53 AM,19.0,12.0,74,30.17,7.0,North,19.6,-,0.00,Snow,Light Snow,10,2014-01-01 17:53:00
12:53 PM,19.9,12.0,71,30.17,6.0,North,21.9,-,0.00,Snow,Light Snow,360,2014-01-01 18:53:00
1:53 PM,19.0,10.9,71,30.20,6.0,North,27.6,-,0.00,Snow,Light Snow,360,2014-01-01 19:53:00
2:53 PM,17.1,9.0,71,30.22,7.0,North,26.5,-,0.00,Snow,Light Snow,350,2014-01-01 20:53:00
3:16 PM,15.1,9.0,77,30.19,2.5,North,26.5,-,0.00,Snow,Light Snow,360,2014-01-01 21:16:00
3:23 PM,15.1,10.0,80,30.19,0.8,NNW,24.2,-,0.00,Snow,Light Snow,340,2014-01-01 21:23:00
3:27 PM,15.1,10.0,80,30.20,0.5,North,21.9,-,0.00,Snow,Snow,350,2014-01-01 21:27:00
3:53 PM,14.0,9.0,80,30.28,0.5,NNW,21.9,-,0.00,Snow,Snow,340,2014-01-01 21:53:00
4:09 PM,12.9,8.1,81,30.23,0.2,North,24.2,-,0.00,Snow,Heavy Snow,350,2014-01-01 22:09:00
4:42 PM,12.9,8.1,81,30.25,0.5,North,23.0,-,0.00,Snow,Snow,350,2014-01-01 22:42:00
4:49 PM,12.2,8.6,85,30.25,0.5,North,24.2,-,0.00,Snow,Snow,350,2014-01-01 22:49:00
4:53 PM,12.9,8.1,81,30.31,0.5,North,21.9,-,0.00,Snow,Snow,350,2014-01-01 22:53:00
5:53 PM,12.9,9.0,84,30.36,0.8,NNW,18.4,-,0.00,Snow,Light Snow,340,2014-01-01 23:53:00
6:02 PM,12.9,9.0,84,30.30,0.5,NNW,19.6,-,0.00,Fog-Snow,Snow,340,2014-01-02 00:02:00
6:16 PM,12.9,9.0,84,30.31,1.0,NNW,17.3,-,0.00,Snow,Light Snow,340,2014-01-02 00:16:00
6:30 PM,12.9,9.0,84,30.32,1.8,NNW,18.4,-,0.00,Snow,Light Snow,340,2014-01-02 00:30:00
6:53 PM,14.0,9.0,80,30.39,1.8,NNW,18.4,-,0.00,Snow,Light Snow,340,2014-01-02 00:53:00
7:01 PM,14.0,9.0,80,30.34,2.5,NNW,18.4,-,0.00,Snow,Light Snow,340,2014-01-02 01:01:00
7:08 PM,14.0,9.0,80,30.34,4.0,NNW,17.3,-,0.00,Snow,Light Snow,340,2014-01-02 01:08:00
7:53 PM,15.1,8.1,74,30.43,9.0,NNW,19.6,-,0.00,Snow,Light Snow,340,2014-01-02 01:53:00
8:53 PM,12.9,7.0,77,30.46,9.0,NNW,18.4,-,0.00,Snow,Light Snow,340,2014-01-02 02:53:00
9:53 PM,12.0,5.0,73,30.47,10.0,NNW,16.1,-,0.00,,Clear,330,2014-01-02 03:53:00
10:53 PM,10.0,3.9,76,30.48,10.0,NW,12.7,-,N/A,,Clear,320,2014-01-02 04:53:00
11:53 PM,8.1,1.9,76,30.48,10.0,NW,11.5,-,N/A,,Clear,320,2014-01-02 05:53:00